sensor_id;sensor_type;location;lat;lon;timestamp;P1;durP1;ratioP1;P2;durP2;ratioP2
13040;SDS011;6587;42.728;23.288;2023-08-08T00:01:49;3.90;;;1.70;;
13040;SDS011;6587;42.728;23.288;2023-08-08T00:04:16;1.67;;;1.37;;
13040;SDS011;6587;42.728;23.288;2023-08-08T00:06:43;2.37;;;1.50;;
13040;SDS011;6587;42.728;23.288;2023-08-08T00:09:10;2.00;;;1.60;;
13040;SDS011;6587;42.728;23.288;2023-08-08T00:11:36;1.70;;;1.60;;
13040;SDS011;6587;42.728;23.288;2023-08-08T00:14:05;1.53;;;1.40;;
13040;SDS011;6587;42.728;23.288;2023-08-08T00:16:32;2.70;;;1.50;;
13040;SDS011;6587;42.728;23.288;2023-08-08T00:18:59;2.10;;;1.67;;
13040;SDS011;6587;42.728;23.288;2023-08-08T00:21:26;1.63;;;1.53;;
13040;SDS011;6587;42.728;23.288;2023-08-08T00:23:52;1.70;;;1.40;;
13040;SDS011;6587;42.728;23.288;2023-08-08T00:26:19;3.83;;;1.70;;
13040;SDS011;6587;42.728;23.288;2023-08-08T00:28:46;2.20;;;1.60;;
13040;SDS011;6587;42.728;23.288;2023-08-08T00:31:14;3.33;;;1.50;;
13040;SDS011;6587;42.728;23.288;2023-08-08T00:33:43;2.83;;;1.60;;
13040;SDS011;6587;42.728;23.288;2023-08-08T00:36:10;1.87;;;1.70;;
13040;SDS011;6587;42.728;23.288;2023-08-08T00:38:37;2.37;;;1.80;;
13040;SDS011;6587;42.728;23.288;2023-08-08T00:41:04;1.73;;;1.57;;
13040;SDS011;6587;42.728;23.288;2023-08-08T00:43:31;2.20;;;1.50;;
13040;SDS011;6587;42.728;23.288;2023-08-08T00:45:58;2.93;;;1.63;;
13040;SDS011;6587;42.728;23.288;2023-08-08T00:48:26;1.80;;;1.70;;
13040;SDS011;6587;42.728;23.288;2023-08-08T00:50:53;1.70;;;1.60;;
13040;SDS011;6587;42.728;23.288;2023-08-08T00:53:20;3.27;;;1.70;;
13040;SDS011;6587;42.728;23.288;2023-08-08T00:55:51;2.67;;;1.63;;
13040;SDS011;6587;42.728;23.288;2023-08-08T00:58:19;1.63;;;1.53;;
13040;SDS011;6587;42.728;23.288;2023-08-08T01:00:46;1.63;;;1.50;;
13040;SDS011;6587;42.728;23.288;2023-08-08T01:03:13;1.97;;;1.80;;
13040;SDS011;6587;42.728;23.288;2023-08-08T01:05:43;1.87;;;1.70;;
13040;SDS011;6587;42.728;23.288;2023-08-08T01:08:15;2.70;;;1.50;;
13040;SDS011;6587;42.728;23.288;2023-08-08T01:10:47;1.63;;;1.53;;
13040;SDS011;6587;42.728;23.288;2023-08-08T01:13:15;1.70;;;1.53;;
13040;SDS011;6587;42.728;23.288;2023-08-08T01:15:46;1.57;;;1.47;;
13040;SDS011;6587;42.728;23.288;2023-08-08T01:18:15;1.63;;;1.53;;
13040;SDS011;6587;42.728;23.288;2023-08-08T01:20:45;1.73;;;1.63;;
13040;SDS011;6587;42.728;23.288;2023-08-08T01:23:14;2.63;;;1.87;;
13040;SDS011;6587;42.728;23.288;2023-08-08T01:25:47;2.30;;;1.80;;
13040;SDS011;6587;42.728;23.288;2023-08-08T01:28:14;2.00;;;1.80;;
13040;SDS011;6587;42.728;23.288;2023-08-08T01:30:41;2.30;;;1.60;;
13040;SDS011;6587;42.728;23.288;2023-08-08T01:33:10;1.80;;;1.43;;
13040;SDS011;6587;42.728;23.288;2023-08-08T01:35:37;2.73;;;1.37;;
13040;SDS011;6587;42.728;23.288;2023-08-08T01:38:08;2.00;;;1.80;;
13040;SDS011;6587;42.728;23.288;2023-08-08T01:40:40;1.80;;;1.70;;
13040;SDS011;6587;42.728;23.288;2023-08-08T01:43:10;1.97;;;1.77;;
13040;SDS011;6587;42.728;23.288;2023-08-08T01:45:39;1.93;;;1.83;;
13040;SDS011;6587;42.728;23.288;2023-08-08T01:48:07;2.13;;;1.97;;
13040;SDS011;6587;42.728;23.288;2023-08-08T01:50:34;1.80;;;1.70;;
13040;SDS011;6587;42.728;23.288;2023-08-08T01:53:02;2.73;;;1.73;;
13040;SDS011;6587;42.728;23.288;2023-08-08T01:55:29;2.13;;;1.93;;
13040;SDS011;6587;42.728;23.288;2023-08-08T01:57:56;2.53;;;1.80;;
13040;SDS011;6587;42.728;23.288;2023-08-08T02:00:24;1.90;;;1.70;;
13040;SDS011;6587;42.728;23.288;2023-08-08T02:02:52;2.63;;;2.07;;
13040;SDS011;6587;42.728;23.288;2023-08-08T02:05:19;2.13;;;2.03;;
13040;SDS011;6587;42.728;23.288;2023-08-08T02:07:48;2.40;;;2.13;;
13040;SDS011;6587;42.728;23.288;2023-08-08T02:10:15;2.60;;;2.10;;
13040;SDS011;6587;42.728;23.288;2023-08-08T02:12:42;3.17;;;2.27;;
13040;SDS011;6587;42.728;23.288;2023-08-08T02:15:09;2.40;;;2.13;;
13040;SDS011;6587;42.728;23.288;2023-08-08T02:17:38;2.73;;;2.20;;
13040;SDS011;6587;42.728;23.288;2023-08-08T02:20:05;2.40;;;2.20;;
13040;SDS011;6587;42.728;23.288;2023-08-08T02:22:33;3.53;;;2.47;;
13040;SDS011;6587;42.728;23.288;2023-08-08T02:25:01;2.43;;;2.23;;
13040;SDS011;6587;42.728;23.288;2023-08-08T02:27:28;3.00;;;2.50;;
13040;SDS011;6587;42.728;23.288;2023-08-08T02:29:55;2.97;;;2.60;;
13040;SDS011;6587;42.728;23.288;2023-08-08T02:32:22;2.83;;;2.57;;
13040;SDS011;6587;42.728;23.288;2023-08-08T02:34:51;3.50;;;2.60;;
13040;SDS011;6587;42.728;23.288;2023-08-08T02:37:17;2.77;;;2.37;;
13040;SDS011;6587;42.728;23.288;2023-08-08T02:39:44;3.10;;;2.80;;
13040;SDS011;6587;42.728;23.288;2023-08-08T02:42:14;4.20;;;2.60;;
13040;SDS011;6587;42.728;23.288;2023-08-08T02:44:42;3.00;;;2.80;;
13040;SDS011;6587;42.728;23.288;2023-08-08T02:47:09;3.67;;;3.37;;
13040;SDS011;6587;42.728;23.288;2023-08-08T02:49:36;3.07;;;2.80;;
13040;SDS011;6587;42.728;23.288;2023-08-08T02:52:04;3.50;;;3.20;;
13040;SDS011;6587;42.728;23.288;2023-08-08T02:54:33;4.47;;;3.40;;
13040;SDS011;6587;42.728;23.288;2023-08-08T02:57:00;4.63;;;3.40;;
13040;SDS011;6587;42.728;23.288;2023-08-08T02:59:28;4.37;;;3.70;;
13040;SDS011;6587;42.728;23.288;2023-08-08T03:01:55;4.03;;;3.50;;
13040;SDS011;6587;42.728;23.288;2023-08-08T03:04:22;4.83;;;4.10;;
13040;SDS011;6587;42.728;23.288;2023-08-08T03:06:49;4.17;;;3.70;;
13040;SDS011;6587;42.728;23.288;2023-08-08T03:09:17;4.27;;;3.87;;
13040;SDS011;6587;42.728;23.288;2023-08-08T03:11:44;4.23;;;3.83;;
13040;SDS011;6587;42.728;23.288;2023-08-08T03:14:14;3.93;;;3.63;;
13040;SDS011;6587;42.728;23.288;2023-08-08T03:16:40;4.93;;;4.43;;
13040;SDS011;6587;42.728;23.288;2023-08-08T03:19:08;5.63;;;4.87;;
13040;SDS011;6587;42.728;23.288;2023-08-08T03:21:37;5.03;;;3.77;;
13040;SDS011;6587;42.728;23.288;2023-08-08T03:24:04;5.70;;;4.70;;
13040;SDS011;6587;42.728;23.288;2023-08-08T03:26:33;5.20;;;4.13;;
13040;SDS011;6587;42.728;23.288;2023-08-08T03:29:00;5.53;;;5.03;;
13040;SDS011;6587;42.728;23.288;2023-08-08T03:31:38;5.30;;;4.80;;
13040;SDS011;6587;42.728;23.288;2023-08-08T03:34:05;5.60;;;5.10;;
13040;SDS011;6587;42.728;23.288;2023-08-08T03:36:33;5.93;;;5.10;;
13040;SDS011;6587;42.728;23.288;2023-08-08T03:39:00;6.10;;;4.93;;
13040;SDS011;6587;42.728;23.288;2023-08-08T03:41:28;5.77;;;5.10;;
13040;SDS011;6587;42.728;23.288;2023-08-08T03:43:57;5.63;;;5.13;;
13040;SDS011;6587;42.728;23.288;2023-08-08T03:46:24;8.23;;;5.73;;
13040;SDS011;6587;42.728;23.288;2023-08-08T03:48:51;6.13;;;5.53;;
13040;SDS011;6587;42.728;23.288;2023-08-08T03:51:18;6.90;;;6.20;;
13040;SDS011;6587;42.728;23.288;2023-08-08T03:53:45;6.47;;;5.87;;
13040;SDS011;6587;42.728;23.288;2023-08-08T03:56:12;6.30;;;5.70;;
13040;SDS011;6587;42.728;23.288;2023-08-08T03:58:39;7.07;;;6.00;;
13040;SDS011;6587;42.728;23.288;2023-08-08T04:01:07;6.40;;;5.67;;
13040;SDS011;6587;42.728;23.288;2023-08-08T04:03:34;6.80;;;6.20;;
13040;SDS011;6587;42.728;23.288;2023-08-08T04:06:02;7.10;;;6.10;;
13040;SDS011;6587;42.728;23.288;2023-08-08T04:08:31;7.10;;;6.40;;
13040;SDS011;6587;42.728;23.288;2023-08-08T04:10:58;7.13;;;6.43;;
13040;SDS011;6587;42.728;23.288;2023-08-08T04:13:25;7.40;;;6.30;;
13040;SDS011;6587;42.728;23.288;2023-08-08T04:15:52;6.90;;;6.30;;
13040;SDS011;6587;42.728;23.288;2023-08-08T04:18:20;8.63;;;6.93;;
13040;SDS011;6587;42.728;23.288;2023-08-08T04:20:47;7.90;;;7.20;;
13040;SDS011;6587;42.728;23.288;2023-08-08T04:23:14;7.50;;;6.80;;
13040;SDS011;6587;42.728;23.288;2023-08-08T04:25:40;7.67;;;6.87;;
13040;SDS011;6587;42.728;23.288;2023-08-08T04:28:07;8.03;;;7.23;;
13040;SDS011;6587;42.728;23.288;2023-08-08T04:30:34;10.70;;;7.70;;
13040;SDS011;6587;42.728;23.288;2023-08-08T04:33:01;9.70;;;7.97;;
13040;SDS011;6587;42.728;23.288;2023-08-08T04:35:29;8.37;;;7.20;;
13040;SDS011;6587;42.728;23.288;2023-08-08T04:37:56;7.80;;;7.03;;
13040;SDS011;6587;42.728;23.288;2023-08-08T04:40:23;8.03;;;7.33;;
13040;SDS011;6587;42.728;23.288;2023-08-08T04:42:50;7.93;;;7.13;;
13040;SDS011;6587;42.728;23.288;2023-08-08T04:45:17;9.80;;;7.40;;
13040;SDS011;6587;42.728;23.288;2023-08-08T04:47:46;8.27;;;7.47;;
13040;SDS011;6587;42.728;23.288;2023-08-08T04:50:13;7.97;;;7.20;;
13040;SDS011;6587;42.728;23.288;2023-08-08T04:52:41;7.90;;;7.10;;
13040;SDS011;6587;42.728;23.288;2023-08-08T04:55:08;10.20;;;7.47;;
13040;SDS011;6587;42.728;23.288;2023-08-08T04:57:35;7.83;;;7.07;;
13040;SDS011;6587;42.728;23.288;2023-08-08T05:00:02;9.07;;;7.70;;
13040;SDS011;6587;42.728;23.288;2023-08-08T05:02:33;8.27;;;7.30;;
13040;SDS011;6587;42.728;23.288;2023-08-08T05:05:00;8.77;;;7.80;;
13040;SDS011;6587;42.728;23.288;2023-08-08T05:07:27;8.97;;;8.07;;
13040;SDS011;6587;42.728;23.288;2023-08-08T05:09:55;9.80;;;7.43;;
13040;SDS011;6587;42.728;23.288;2023-08-08T05:12:22;8.37;;;7.27;;
13040;SDS011;6587;42.728;23.288;2023-08-08T05:14:49;6.97;;;6.27;;
13040;SDS011;6587;42.728;23.288;2023-08-08T05:17:16;8.23;;;7.37;;
13040;SDS011;6587;42.728;23.288;2023-08-08T05:19:43;6.40;;;5.80;;
13040;SDS011;6587;42.728;23.288;2023-08-08T05:22:09;6.73;;;5.57;;
13040;SDS011;6587;42.728;23.288;2023-08-08T05:24:36;5.87;;;5.27;;
13040;SDS011;6587;42.728;23.288;2023-08-08T05:27:05;6.10;;;5.37;;
13040;SDS011;6587;42.728;23.288;2023-08-08T05:29:31;5.80;;;5.10;;
13040;SDS011;6587;42.728;23.288;2023-08-08T05:31:59;5.37;;;4.93;;
13040;SDS011;6587;42.728;23.288;2023-08-08T05:34:26;4.70;;;4.30;;
13040;SDS011;6587;42.728;23.288;2023-08-08T05:36:53;4.83;;;4.33;;
13040;SDS011;6587;42.728;23.288;2023-08-08T05:39:20;5.40;;;4.87;;
13040;SDS011;6587;42.728;23.288;2023-08-08T05:41:46;8.83;;;4.80;;
13040;SDS011;6587;42.728;23.288;2023-08-08T05:44:15;5.40;;;4.90;;
13040;SDS011;6587;42.728;23.288;2023-08-08T05:46:41;6.70;;;4.73;;
13040;SDS011;6587;42.728;23.288;2023-08-08T05:49:08;5.63;;;5.03;;
13040;SDS011;6587;42.728;23.288;2023-08-08T05:51:35;5.93;;;5.27;;
13040;SDS011;6587;42.728;23.288;2023-08-08T05:54:02;5.90;;;5.30;;
13040;SDS011;6587;42.728;23.288;2023-08-08T05:56:34;7.20;;;4.67;;
13040;SDS011;6587;42.728;23.288;2023-08-08T05:59:01;5.60;;;5.10;;
13040;SDS011;6587;42.728;23.288;2023-08-08T06:01:29;6.30;;;5.70;;
13040;SDS011;6587;42.728;23.288;2023-08-08T06:03:56;6.80;;;5.47;;
13040;SDS011;6587;42.728;23.288;2023-08-08T06:06:24;6.63;;;5.50;;
13040;SDS011;6587;42.728;23.288;2023-08-08T06:08:51;6.07;;;5.57;;
13040;SDS011;6587;42.728;23.288;2023-08-08T06:11:18;5.43;;;4.77;;
13040;SDS011;6587;42.728;23.288;2023-08-08T06:13:46;6.10;;;5.50;;
13040;SDS011;6587;42.728;23.288;2023-08-08T06:16:13;9.60;;;5.50;;
13040;SDS011;6587;42.728;23.288;2023-08-08T06:18:42;6.93;;;5.63;;
13040;SDS011;6587;42.728;23.288;2023-08-08T06:21:09;6.47;;;5.70;;
13040;SDS011;6587;42.728;23.288;2023-08-08T06:23:36;6.47;;;5.87;;
13040;SDS011;6587;42.728;23.288;2023-08-08T06:26:02;9.47;;;6.53;;
13040;SDS011;6587;42.728;23.288;2023-08-08T06:28:29;6.03;;;5.43;;
13040;SDS011;6587;42.728;23.288;2023-08-08T06:30:56;5.57;;;5.07;;
13040;SDS011;6587;42.728;23.288;2023-08-08T06:33:23;5.87;;;5.37;;
13040;SDS011;6587;42.728;23.288;2023-08-08T06:35:52;6.23;;;5.30;;
13040;SDS011;6587;42.728;23.288;2023-08-08T06:38:18;5.70;;;5.20;;
13040;SDS011;6587;42.728;23.288;2023-08-08T06:40:45;6.33;;;4.43;;
13040;SDS011;6587;42.728;23.288;2023-08-08T06:43:12;6.20;;;4.60;;
13040;SDS011;6587;42.728;23.288;2023-08-08T06:45:39;4.37;;;3.60;;
13040;SDS011;6587;42.728;23.288;2023-08-08T06:48:06;4.33;;;3.57;;
13040;SDS011;6587;42.728;23.288;2023-08-08T06:50:33;4.93;;;3.43;;
13040;SDS011;6587;42.728;23.288;2023-08-08T06:53:01;3.90;;;3.10;;
13040;SDS011;6587;42.728;23.288;2023-08-08T06:55:29;3.50;;;3.20;;
13040;SDS011;6587;42.728;23.288;2023-08-08T06:57:56;3.63;;;3.33;;
13040;SDS011;6587;42.728;23.288;2023-08-08T07:00:23;3.43;;;3.13;;
13040;SDS011;6587;42.728;23.288;2023-08-08T07:02:52;3.60;;;3.20;;
13040;SDS011;6587;42.728;23.288;2023-08-08T07:05:19;9.47;;;3.10;;
13040;SDS011;6587;42.728;23.288;2023-08-08T07:07:47;4.60;;;3.10;;
13040;SDS011;6587;42.728;23.288;2023-08-08T07:10:16;4.40;;;3.80;;
13040;SDS011;6587;42.728;23.288;2023-08-08T07:12:43;4.23;;;3.63;;
13040;SDS011;6587;42.728;23.288;2023-08-08T07:15:10;4.17;;;3.77;;
13040;SDS011;6587;42.728;23.288;2023-08-08T07:17:37;4.10;;;3.70;;
13040;SDS011;6587;42.728;23.288;2023-08-08T07:20:05;3.47;;;3.27;;
13040;SDS011;6587;42.728;23.288;2023-08-08T07:22:33;4.00;;;2.80;;
13040;SDS011;6587;42.728;23.288;2023-08-08T07:25:00;2.90;;;2.60;;
13040;SDS011;6587;42.728;23.288;2023-08-08T07:27:29;2.90;;;2.60;;
13040;SDS011;6587;42.728;23.288;2023-08-08T07:29:56;3.40;;;3.10;;
13040;SDS011;6587;42.728;23.288;2023-08-08T07:32:24;3.57;;;2.97;;
13040;SDS011;6587;42.728;23.288;2023-08-08T07:34:51;3.90;;;2.90;;
13040;SDS011;6587;42.728;23.288;2023-08-08T07:37:17;3.60;;;2.60;;
13040;SDS011;6587;42.728;23.288;2023-08-08T07:39:44;2.50;;;2.30;;
13040;SDS011;6587;42.728;23.288;2023-08-08T07:42:11;2.40;;;2.20;;
13040;SDS011;6587;42.728;23.288;2023-08-08T07:44:39;2.67;;;2.43;;
13040;SDS011;6587;42.728;23.288;2023-08-08T07:47:06;4.23;;;2.83;;
13040;SDS011;6587;42.728;23.288;2023-08-08T07:49:33;3.43;;;2.53;;
13040;SDS011;6587;42.728;23.288;2023-08-08T07:52:00;2.70;;;2.27;;
13040;SDS011;6587;42.728;23.288;2023-08-08T07:54:27;3.07;;;2.40;;
13040;SDS011;6587;42.728;23.288;2023-08-08T07:56:54;3.20;;;2.00;;
13040;SDS011;6587;42.728;23.288;2023-08-08T07:59:21;2.20;;;2.10;;
13040;SDS011;6587;42.728;23.288;2023-08-08T08:01:50;3.00;;;2.43;;
13040;SDS011;6587;42.728;23.288;2023-08-08T08:04:17;2.40;;;2.20;;
13040;SDS011;6587;42.728;23.288;2023-08-08T08:06:44;1.60;;;1.50;;
13040;SDS011;6587;42.728;23.288;2023-08-08T08:09:10;4.23;;;2.40;;
13040;SDS011;6587;42.728;23.288;2023-08-08T08:11:38;2.77;;;2.57;;
13040;SDS011;6587;42.728;23.288;2023-08-08T08:14:04;2.87;;;2.57;;
13040;SDS011;6587;42.728;23.288;2023-08-08T08:16:31;2.53;;;2.33;;
13040;SDS011;6587;42.728;23.288;2023-08-08T08:19:00;4.27;;;2.20;;
13040;SDS011;6587;42.728;23.288;2023-08-08T08:21:26;2.13;;;1.97;;
13040;SDS011;6587;42.728;23.288;2023-08-08T08:23:53;3.23;;;2.20;;
13040;SDS011;6587;42.728;23.288;2023-08-08T08:26:20;2.50;;;2.30;;
13040;SDS011;6587;42.728;23.288;2023-08-08T08:28:47;2.47;;;2.27;;
13040;SDS011;6587;42.728;23.288;2023-08-08T08:31:14;3.53;;;2.27;;
13040;SDS011;6587;42.728;23.288;2023-08-08T08:33:42;2.90;;;2.70;;
13040;SDS011;6587;42.728;23.288;2023-08-08T08:36:10;4.03;;;2.47;;
13040;SDS011;6587;42.728;23.288;2023-08-08T08:38:37;2.90;;;2.30;;
13040;SDS011;6587;42.728;23.288;2023-08-08T08:41:04;2.80;;;2.60;;
13040;SDS011;6587;42.728;23.288;2023-08-08T08:43:31;4.20;;;3.10;;
13040;SDS011;6587;42.728;23.288;2023-08-08T08:45:59;3.10;;;2.80;;
13040;SDS011;6587;42.728;23.288;2023-08-08T08:48:27;4.50;;;2.63;;
13040;SDS011;6587;42.728;23.288;2023-08-08T08:50:54;3.20;;;2.90;;
13040;SDS011;6587;42.728;23.288;2023-08-08T08:53:24;2.80;;;2.57;;
13040;SDS011;6587;42.728;23.288;2023-08-08T08:55:51;2.80;;;2.60;;
13040;SDS011;6587;42.728;23.288;2023-08-08T08:58:18;3.40;;;3.03;;
13040;SDS011;6587;42.728;23.288;2023-08-08T09:00:47;3.67;;;2.40;;
13040;SDS011;6587;42.728;23.288;2023-08-08T09:03:14;3.57;;;3.03;;
13040;SDS011;6587;42.728;23.288;2023-08-08T09:05:42;4.77;;;3.00;;
13040;SDS011;6587;42.728;23.288;2023-08-08T09:08:10;2.57;;;2.37;;
13040;SDS011;6587;42.728;23.288;2023-08-08T09:10:38;2.63;;;2.43;;
13040;SDS011;6587;42.728;23.288;2023-08-08T09:13:06;2.43;;;2.23;;
13040;SDS011;6587;42.728;23.288;2023-08-08T09:15:32;3.10;;;2.50;;
13040;SDS011;6587;42.728;23.288;2023-08-08T09:18:00;2.53;;;2.33;;
13040;SDS011;6587;42.728;23.288;2023-08-08T09:20:28;2.20;;;2.10;;
13040;SDS011;6587;42.728;23.288;2023-08-08T09:22:55;2.90;;;2.70;;
13040;SDS011;6587;42.728;23.288;2023-08-08T09:25:22;2.33;;;2.20;;
13040;SDS011;6587;42.728;23.288;2023-08-08T09:27:51;3.20;;;2.40;;
13040;SDS011;6587;42.728;23.288;2023-08-08T09:30:19;2.50;;;2.30;;
13040;SDS011;6587;42.728;23.288;2023-08-08T09:32:47;3.03;;;2.23;;
13040;SDS011;6587;42.728;23.288;2023-08-08T09:35:14;2.20;;;2.10;;
13040;SDS011;6587;42.728;23.288;2023-08-08T09:37:41;3.13;;;2.57;;
13040;SDS011;6587;42.728;23.288;2023-08-08T09:40:08;4.80;;;2.87;;
13040;SDS011;6587;42.728;23.288;2023-08-08T09:42:37;4.13;;;2.53;;
13040;SDS011;6587;42.728;23.288;2023-08-08T09:45:06;2.80;;;2.60;;
13040;SDS011;6587;42.728;23.288;2023-08-08T09:47:35;2.80;;;2.60;;
13040;SDS011;6587;42.728;23.288;2023-08-08T09:50:04;2.60;;;2.10;;
13040;SDS011;6587;42.728;23.288;2023-08-08T09:52:31;4.57;;;2.40;;
13040;SDS011;6587;42.728;23.288;2023-08-08T09:54:59;2.57;;;2.37;;
13040;SDS011;6587;42.728;23.288;2023-08-08T09:57:27;3.10;;;2.90;;
13040;SDS011;6587;42.728;23.288;2023-08-08T09:59:56;3.83;;;3.53;;
13040;SDS011;6587;42.728;23.288;2023-08-08T10:02:25;3.30;;;3.10;;
13040;SDS011;6587;42.728;23.288;2023-08-08T10:04:52;3.17;;;2.60;;
13040;SDS011;6587;42.728;23.288;2023-08-08T10:07:19;2.90;;;2.70;;
13040;SDS011;6587;42.728;23.288;2023-08-08T10:09:46;2.90;;;2.70;;
13040;SDS011;6587;42.728;23.288;2023-08-08T10:12:13;2.83;;;2.63;;
13040;SDS011;6587;42.728;23.288;2023-08-08T10:14:42;3.07;;;2.87;;
13040;SDS011;6587;42.728;23.288;2023-08-08T10:17:13;3.03;;;2.80;;
13040;SDS011;6587;42.728;23.288;2023-08-08T10:19:50;2.93;;;2.60;;
13040;SDS011;6587;42.728;23.288;2023-08-08T10:22:20;2.63;;;2.43;;
13040;SDS011;6587;42.728;23.288;2023-08-08T10:24:50;3.00;;;2.70;;
13040;SDS011;6587;42.728;23.288;2023-08-08T10:27:27;3.17;;;2.83;;
13040;SDS011;6587;42.728;23.288;2023-08-08T10:30:00;3.23;;;2.60;;
13040;SDS011;6587;42.728;23.288;2023-08-08T10:32:38;2.83;;;2.63;;
13040;SDS011;6587;42.728;23.288;2023-08-08T10:35:07;2.53;;;2.33;;
13040;SDS011;6587;42.728;23.288;2023-08-08T10:37:35;2.00;;;1.90;;
13040;SDS011;6587;42.728;23.288;2023-08-08T10:40:04;2.30;;;2.20;;
13040;SDS011;6587;42.728;23.288;2023-08-08T10:42:36;2.33;;;2.23;;
13040;SDS011;6587;42.728;23.288;2023-08-08T10:45:09;2.60;;;2.40;;
13040;SDS011;6587;42.728;23.288;2023-08-08T10:47:38;2.30;;;2.10;;
13040;SDS011;6587;42.728;23.288;2023-08-08T10:50:07;2.17;;;2.07;;
13040;SDS011;6587;42.728;23.288;2023-08-08T10:52:53;4.93;;;2.10;;
13040;SDS011;6587;42.728;23.288;2023-08-08T10:55:22;2.27;;;2.17;;
13040;SDS011;6587;42.728;23.288;2023-08-08T10:57:54;3.20;;;2.53;;
13040;SDS011;6587;42.728;23.288;2023-08-08T11:00:23;4.35;;;3.08;;
13040;SDS011;6587;42.728;23.288;2023-08-08T11:02:51;2.67;;;2.47;;
13040;SDS011;6587;42.728;23.288;2023-08-08T11:05:22;4.10;;;2.40;;
13040;SDS011;6587;42.728;23.288;2023-08-08T11:07:49;2.30;;;2.10;;
13040;SDS011;6587;42.728;23.288;2023-08-08T11:10:16;2.17;;;2.07;;
13040;SDS011;6587;42.728;23.288;2023-08-08T11:12:52;2.27;;;2.10;;
13040;SDS011;6587;42.728;23.288;2023-08-08T11:15:20;2.40;;;2.20;;
13040;SDS011;6587;42.728;23.288;2023-08-08T11:17:47;3.40;;;2.50;;
13040;SDS011;6587;42.728;23.288;2023-08-08T11:20:14;4.10;;;2.60;;
13040;SDS011;6587;42.728;23.288;2023-08-08T11:22:43;3.00;;;2.13;;
13040;SDS011;6587;42.728;23.288;2023-08-08T11:25:10;2.90;;;2.20;;
13040;SDS011;6587;42.728;23.288;2023-08-08T11:27:36;3.80;;;2.50;;
13040;SDS011;6587;42.728;23.288;2023-08-08T11:30:04;2.40;;;2.20;;
13040;SDS011;6587;42.728;23.288;2023-08-08T11:32:32;2.70;;;2.50;;
13040;SDS011;6587;42.728;23.288;2023-08-08T11:35:00;2.40;;;2.20;;
13040;SDS011;6587;42.728;23.288;2023-08-08T11:37:28;1.90;;;1.80;;
13040;SDS011;6587;42.728;23.288;2023-08-08T11:39:56;2.30;;;2.10;;
13040;SDS011;6587;42.728;23.288;2023-08-08T11:42:23;1.93;;;1.53;;
13040;SDS011;6587;42.728;23.288;2023-08-08T11:44:50;2.93;;;1.97;;
13040;SDS011;6587;42.728;23.288;2023-08-08T11:47:17;1.93;;;1.83;;
13040;SDS011;6587;42.728;23.288;2023-08-08T11:49:51;2.63;;;1.67;;
13040;SDS011;6587;42.728;23.288;2023-08-08T11:52:18;1.70;;;1.60;;
13040;SDS011;6587;42.728;23.288;2023-08-08T11:54:49;4.97;;;2.30;;
13040;SDS011;6587;42.728;23.288;2023-08-08T11:57:18;1.90;;;1.80;;
13040;SDS011;6587;42.728;23.288;2023-08-08T11:59:47;3.42;;;1.80;;
13040;SDS011;6587;42.728;23.288;2023-08-08T12:02:16;4.20;;;1.90;;
13040;SDS011;6587;42.728;23.288;2023-08-08T12:04:43;2.13;;;1.92;;
13040;SDS011;6587;42.728;23.288;2023-08-08T12:07:11;2.05;;;1.95;;
13040;SDS011;6587;42.728;23.288;2023-08-08T12:09:37;2.28;;;2.08;;
13040;SDS011;6587;42.728;23.288;2023-08-08T12:12:05;2.08;;;1.90;;
13040;SDS011;6587;42.728;23.288;2023-08-08T12:14:37;2.05;;;1.90;;
13040;SDS011;6587;42.728;23.288;2023-08-08T12:17:04;2.70;;;1.80;;
13040;SDS011;6587;42.728;23.288;2023-08-08T12:19:31;2.20;;;2.00;;
13040;SDS011;6587;42.728;23.288;2023-08-08T12:21:58;2.20;;;2.03;;
13040;SDS011;6587;42.728;23.288;2023-08-08T12:24:24;2.05;;;1.80;;
13040;SDS011;6587;42.728;23.288;2023-08-08T12:26:51;2.10;;;2.00;;
13040;SDS011;6587;42.728;23.288;2023-08-08T12:29:18;2.03;;;1.85;;
13040;SDS011;6587;42.728;23.288;2023-08-08T12:31:46;2.17;;;1.93;;
13040;SDS011;6587;42.728;23.288;2023-08-08T12:34:13;4.13;;;2.10;;
13040;SDS011;6587;42.728;23.288;2023-08-08T12:36:40;2.60;;;2.00;;
13040;SDS011;6587;42.728;23.288;2023-08-08T12:39:07;3.17;;;2.35;;
13040;SDS011;6587;42.728;23.288;2023-08-08T12:41:35;1.90;;;1.80;;
13040;SDS011;6587;42.728;23.288;2023-08-08T12:44:02;2.35;;;2.05;;
13040;SDS011;6587;42.728;23.288;2023-08-08T12:46:29;2.85;;;1.95;;
13040;SDS011;6587;42.728;23.288;2023-08-08T12:48:57;1.92;;;1.75;;
13040;SDS011;6587;42.728;23.288;2023-08-08T12:51:24;1.90;;;1.80;;
13040;SDS011;6587;42.728;23.288;2023-08-08T12:53:51;2.35;;;2.15;;
13040;SDS011;6587;42.728;23.288;2023-08-08T12:56:18;2.30;;;2.10;;
13040;SDS011;6587;42.728;23.288;2023-08-08T12:58:46;2.65;;;1.95;;
13040;SDS011;6587;42.728;23.288;2023-08-08T13:01:12;1.90;;;1.80;;
13040;SDS011;6587;42.728;23.288;2023-08-08T13:03:39;2.67;;;1.88;;
13040;SDS011;6587;42.728;23.288;2023-08-08T13:06:07;2.00;;;1.90;;
13040;SDS011;6587;42.728;23.288;2023-08-08T13:08:36;2.47;;;2.25;;
13040;SDS011;6587;42.728;23.288;2023-08-08T13:11:03;2.15;;;1.95;;
13040;SDS011;6587;42.728;23.288;2023-08-08T13:13:30;2.70;;;2.13;;
13040;SDS011;6587;42.728;23.288;2023-08-08T13:15:57;3.55;;;2.22;;
13040;SDS011;6587;42.728;23.288;2023-08-08T13:18:24;3.17;;;2.10;;
13040;SDS011;6587;42.728;23.288;2023-08-08T13:20:51;6.13;;;2.58;;
13040;SDS011;6587;42.728;23.288;2023-08-08T13:23:19;3.72;;;1.98;;
13040;SDS011;6587;42.728;23.288;2023-08-08T13:25:46;2.33;;;1.98;;
13040;SDS011;6587;42.728;23.288;2023-08-08T13:28:14;3.35;;;1.80;;
13040;SDS011;6587;42.728;23.288;2023-08-08T13:30:41;2.45;;;2.25;;
13040;SDS011;6587;42.728;23.288;2023-08-08T13:33:08;3.10;;;2.80;;
13040;SDS011;6587;42.728;23.288;2023-08-08T13:35:35;3.65;;;2.60;;
13040;SDS011;6587;42.728;23.288;2023-08-08T13:38:02;2.30;;;2.10;;
13040;SDS011;6587;42.728;23.288;2023-08-08T13:40:30;2.28;;;2.08;;
13040;SDS011;6587;42.728;23.288;2023-08-08T13:42:57;4.22;;;2.10;;
13040;SDS011;6587;42.728;23.288;2023-08-08T13:45:24;3.03;;;2.03;;
13040;SDS011;6587;42.728;23.288;2023-08-08T13:47:51;2.25;;;1.88;;
13040;SDS011;6587;42.728;23.288;2023-08-08T13:50:17;3.42;;;2.20;;
13040;SDS011;6587;42.728;23.288;2023-08-08T13:52:44;3.03;;;2.30;;
13040;SDS011;6587;42.728;23.288;2023-08-08T13:55:11;1.90;;;1.80;;
13040;SDS011;6587;42.728;23.288;2023-08-08T13:57:39;2.97;;;2.67;;
13040;SDS011;6587;42.728;23.288;2023-08-08T14:00:07;3.53;;;2.47;;
13040;SDS011;6587;42.728;23.288;2023-08-08T14:02:36;2.33;;;2.00;;
13040;SDS011;6587;42.728;23.288;2023-08-08T14:05:04;1.98;;;1.80;;
13040;SDS011;6587;42.728;23.288;2023-08-08T14:07:31;2.65;;;2.17;;
13040;SDS011;6587;42.728;23.288;2023-08-08T14:09:58;2.50;;;2.00;;
13040;SDS011;6587;42.728;23.288;2023-08-08T14:12:25;2.45;;;2.03;;
13040;SDS011;6587;42.728;23.288;2023-08-08T14:14:53;1.55;;;1.45;;
13040;SDS011;6587;42.728;23.288;2023-08-08T14:17:20;2.60;;;1.83;;
13040;SDS011;6587;42.728;23.288;2023-08-08T14:19:47;4.57;;;1.98;;
13040;SDS011;6587;42.728;23.288;2023-08-08T14:22:14;3.30;;;2.83;;
13040;SDS011;6587;42.728;23.288;2023-08-08T14:24:41;2.72;;;1.77;;
13040;SDS011;6587;42.728;23.288;2023-08-08T14:27:08;3.72;;;1.63;;
13040;SDS011;6587;42.728;23.288;2023-08-08T14:29:35;10.63;;;6.18;;
13040;SDS011;6587;42.728;23.288;2023-08-08T14:32:04;4.93;;;2.05;;
13040;SDS011;6587;42.728;23.288;2023-08-08T14:34:31;2.22;;;1.88;;
13040;SDS011;6587;42.728;23.288;2023-08-08T14:36:59;2.33;;;1.83;;
13040;SDS011;6587;42.728;23.288;2023-08-08T14:39:27;3.03;;;1.83;;
13040;SDS011;6587;42.728;23.288;2023-08-08T14:41:54;2.13;;;1.63;;
13040;SDS011;6587;42.728;23.288;2023-08-08T14:44:21;2.13;;;1.60;;
13040;SDS011;6587;42.728;23.288;2023-08-08T14:46:48;2.38;;;1.80;;
13040;SDS011;6587;42.728;23.288;2023-08-08T14:49:16;2.53;;;1.80;;
13040;SDS011;6587;42.728;23.288;2023-08-08T14:51:43;1.92;;;1.83;;